sensor_id;sensor_type;location;lat;lon;timestamp;pressure;altitude;pressure_sealevel;temperature;humidity
71105;BME280;58760;48.716;8.962;2023-04-29T00:00:20;96186.69;;;10.80;100.00
71105;BME280;58760;48.716;8.962;2023-04-29T00:02:45;96185.59;;;10.74;100.00
71105;BME280;58760;48.716;8.962;2023-04-29T00:05:11;96177.63;;;10.74;100.00
71105;BME280;58760;48.716;8.962;2023-04-29T00:07:36;96174.25;;;10.66;100.00
71105;BME280;58760;48.716;8.962;2023-04-29T00:10:02;96180.03;;;10.69;100.00
71105;BME280;58760;48.716;8.962;2023-04-29T00:12:27;96180.19;;;10.68;100.00
71105;BME280;58760;48.716;8.962;2023-04-29T00:14:54;96174.44;;;10.64;100.00
71105;BME280;58760;48.716;8.962;2023-04-29T00:17:20;96175.00;;;10.60;100.00
71105;BME280;58760;48.716;8.962;2023-04-29T00:19:45;96175.00;;;10.60;100.00
71105;BME280;58760;48.716;8.962;2023-04-29T00:22:10;96176.63;;;10.61;100.00
71105;BME280;58760;48.716;8.962;2023-04-29T00:24:36;96173.41;;;10.50;100.00
71105;BME280;58760;48.716;8.962;2023-04-29T00:27:01;96173.50;;;10.42;100.00
71105;BME280;58760;48.716;8.962;2023-04-29T00:29:27;96175.84;;;10.37;100.00
71105;BME280;58760;48.716;8.962;2023-04-29T00:31:52;96180.00;;;10.40;100.00
71105;BME280;58760;48.716;8.962;2023-04-29T00:34:18;96180.41;;;10.29;100.00
71105;BME280;58760;48.716;8.962;2023-04-29T00:36:44;96174.13;;;10.30;100.00
71105;BME280;58760;48.716;8.962;2023-04-29T00:39:09;96171.94;;;10.33;100.00
71105;BME280;58760;48.716;8.962;2023-04-29T00:41:35;96175.00;;;10.22;100.00
71105;BME280;58760;48.716;8.962;2023-04-29T00:44:01;96186.50;;;10.15;100.00
71105;BME280;58760;48.716;8.962;2023-04-29T00:46:26;96183.97;;;10.21;100.00
71105;BME280;58760;48.716;8.962;2023-04-29T00:48:52;96186.25;;;10.24;100.00
71105;BME280;58760;48.716;8.962;2023-04-29T00:51:17;96181.81;;;10.39;100.00
71105;BME280;58760;48.716;8.962;2023-04-29T00:53:43;96182.59;;;10.25;100.00
71105;BME280;58760;48.716;8.962;2023-04-29T00:56:09;96179.94;;;10.25;100.00
71105;BME280;58760;48.716;8.962;2023-04-29T00:58:35;96185.09;;;10.27;100.00
71105;BME280;58760;48.716;8.962;2023-04-29T01:01:03;96180.88;;;10.32;100.00
71105;BME280;58760;48.716;8.962;2023-04-29T01:03:32;96184.38;;;10.33;100.00
71105;BME280;58760;48.716;8.962;2023-04-29T01:11:22;96183.38;;;10.34;100.00
71105;BME280;58760;48.716;8.962;2023-04-29T01:13:58;96184.25;;;10.26;100.00
71105;BME280;58760;48.716;8.962;2023-04-29T01:16:28;96180.94;;;10.24;100.00
71105;BME280;58760;48.716;8.962;2023-04-29T01:19:01;96181.59;;;10.26;100.00
71105;BME280;58760;48.716;8.962;2023-04-29T01:21:30;96189.63;;;10.18;100.00
71105;BME280;58760;48.716;8.962;2023-04-29T01:23:56;96188.00;;;10.09;100.00
71105;BME280;58760;48.716;8.962;2023-04-29T01:26:22;96188.72;;;10.03;100.00
71105;BME280;58760;48.716;8.962;2023-04-29T01:32:04;96186.13;;;9.95;100.00
71105;BME280;58760;48.716;8.962;2023-04-29T01:34:41;96185.22;;;9.88;100.00
71105;BME280;58760;48.716;8.962;2023-04-29T01:37:30;96188.84;;;9.87;100.00
71105;BME280;58760;48.716;8.962;2023-04-29T01:45:26;96178.00;;;9.74;100.00
71105;BME280;58760;48.716;8.962;2023-04-29T01:47:53;96182.72;;;9.64;100.00
71105;BME280;58760;48.716;8.962;2023-04-29T01:50:20;96188.72;;;9.58;100.00
71105;BME280;58760;48.716;8.962;2023-04-29T01:52:45;96191.38;;;9.58;100.00
71105;BME280;58760;48.716;8.962;2023-04-29T01:55:11;96187.84;;;9.65;100.00
71105;BME280;58760;48.716;8.962;2023-04-29T01:57:36;96183.94;;;9.76;100.00
71105;BME280;58760;48.716;8.962;2023-04-29T02:00:02;96182.78;;;9.78;100.00
71105;BME280;58760;48.716;8.962;2023-04-29T02:02:29;96184.25;;;9.81;100.00
71105;BME280;58760;48.716;8.962;2023-04-29T02:04:54;96183.78;;;9.77;100.00
71105;BME280;58760;48.716;8.962;2023-04-29T02:07:20;96176.06;;;9.68;100.00
71105;BME280;58760;48.716;8.962;2023-04-29T02:09:46;96172.00;;;9.57;100.00
71105;BME280;58760;48.716;8.962;2023-04-29T02:12:11;96183.78;;;9.55;100.00
71105;BME280;58760;48.716;8.962;2023-04-29T02:14:36;96178.75;;;9.60;100.00
71105;BME280;58760;48.716;8.962;2023-04-29T02:17:02;96178.75;;;9.60;100.00
71105;BME280;58760;48.716;8.962;2023-04-29T02:19:27;96188.72;;;9.58;100.00
71105;BME280;58760;48.716;8.962;2023-04-29T02:21:52;96186.41;;;9.55;100.00
71105;BME280;58760;48.716;8.962;2023-04-29T02:24:18;96171.84;;;9.59;100.00
71105;BME280;58760;48.716;8.962;2023-04-29T02:26:43;96193.59;;;9.46;100.00
71105;BME280;58760;48.716;8.962;2023-04-29T02:29:08;96185.84;;;9.36;100.00
71105;BME280;58760;48.716;8.962;2023-04-29T02:31:34;96191.03;;;9.53;100.00
71105;BME280;58760;48.716;8.962;2023-04-29T02:34:00;96192.22;;;9.50;100.00
71105;BME280;58760;48.716;8.962;2023-04-29T02:36:25;96189.94;;;9.70;100.00
71105;BME280;58760;48.716;8.962;2023-04-29T02:38:51;96191.09;;;9.75;100.00
71105;BME280;58760;48.716;8.962;2023-04-29T02:41:19;96192.09;;;9.74;100.00
71105;BME280;58760;48.716;8.962;2023-04-29T02:43:45;96195.38;;;9.76;100.00
71105;BME280;58760;48.716;8.962;2023-04-29T02:46:10;96187.78;;;9.73;100.00
71105;BME280;58760;48.716;8.962;2023-04-29T02:48:35;96184.31;;;9.73;100.00
71105;BME280;58760;48.716;8.962;2023-04-29T02:51:01;96186.47;;;9.69;100.00
71105;BME280;58760;48.716;8.962;2023-04-29T02:53:26;96184.38;;;9.65;100.00
71105;BME280;58760;48.716;8.962;2023-04-29T02:55:52;96192.34;;;9.57;100.00
71105;BME280;58760;48.716;8.962;2023-04-29T02:58:17;96190.47;;;9.42;100.00
71105;BME280;58760;48.716;8.962;2023-04-29T03:00:42;96184.84;;;9.37;100.00
71105;BME280;58760;48.716;8.962;2023-04-29T03:03:08;96187.56;;;9.29;100.00
71105;BME280;58760;48.716;8.962;2023-04-29T03:05:34;96187.91;;;9.26;100.00
71105;BME280;58760;48.716;8.962;2023-04-29T03:07:59;96187.91;;;9.26;100.00
71105;BME280;58760;48.716;8.962;2023-04-29T03:10:25;96188.34;;;9.30;100.00
71105;BME280;58760;48.716;8.962;2023-04-29T03:12:50;96189.84;;;9.32;100.00
71105;BME280;58760;48.716;8.962;2023-04-29T03:15:16;96197.03;;;9.46;100.00
71105;BME280;58760;48.716;8.962;2023-04-29T03:17:41;96197.94;;;9.39;100.00
71105;BME280;58760;48.716;8.962;2023-04-29T03:20:07;96195.06;;;9.49;100.00
71105;BME280;58760;48.716;8.962;2023-04-29T03:22:34;96188.50;;;9.36;100.00
71105;BME280;58760;48.716;8.962;2023-04-29T03:25:00;96188.50;;;9.36;100.00
71105;BME280;58760;48.716;8.962;2023-04-29T03:27:25;96184.91;;;9.29;100.00
71105;BME280;58760;48.716;8.962;2023-04-29T03:29:50;96181.13;;;9.24;100.00
71105;BME280;58760;48.716;8.962;2023-04-29T03:32:16;96186.47;;;9.16;100.00
71105;BME280;58760;48.716;8.962;2023-04-29T03:34:42;96180.34;;;9.07;100.00
71105;BME280;58760;48.716;8.962;2023-04-29T03:37:07;96176.78;;;9.00;100.00
71105;BME280;58760;48.716;8.962;2023-04-29T03:39:33;96167.69;;;8.94;100.00
71105;BME280;58760;48.716;8.962;2023-04-29T03:41:58;96170.84;;;8.90;100.00
71105;BME280;58760;48.716;8.962;2023-04-29T03:44:24;96164.94;;;8.80;100.00
71105;BME280;58760;48.716;8.962;2023-04-29T03:46:50;96172.53;;;8.83;100.00
71105;BME280;58760;48.716;8.962;2023-04-29T03:49:15;96173.09;;;9.01;100.00
71105;BME280;58760;48.716;8.962;2023-04-29T03:51:41;96168.84;;;9.00;100.00
71105;BME280;58760;48.716;8.962;2023-04-29T03:54:07;96164.94;;;9.19;100.00
71105;BME280;58760;48.716;8.962;2023-04-29T03:56:34;96167.44;;;9.43;100.00
71105;BME280;58760;48.716;8.962;2023-04-29T03:58:59;96178.91;;;9.35;100.00
71105;BME280;58760;48.716;8.962;2023-04-29T04:01:24;96174.34;;;9.21;100.00
71105;BME280;58760;48.716;8.962;2023-04-29T04:03:50;96176.91;;;9.07;100.00
71105;BME280;58760;48.716;8.962;2023-04-29T04:06:15;96177.72;;;9.07;100.00
71105;BME280;58760;48.716;8.962;2023-04-29T04:08:40;96184.31;;;9.11;100.00
71105;BME280;58760;48.716;8.962;2023-04-29T04:11:06;96194.41;;;9.16;100.00
71105;BME280;58760;48.716;8.962;2023-04-29T04:13:32;96191.63;;;9.09;100.00
71105;BME280;58760;48.716;8.962;2023-04-29T04:15:58;96186.81;;;9.05;100.00
71105;BME280;58760;48.716;8.962;2023-04-29T04:18:23;96187.97;;;9.10;100.00
71105;BME280;58760;48.716;8.962;2023-04-29T04:20:49;96198.53;;;9.18;100.00
71105;BME280;58760;48.716;8.962;2023-04-29T04:23:14;96198.84;;;9.23;100.00
71105;BME280;58760;48.716;8.962;2023-04-29T04:25:46;96202.44;;;9.30;100.00
71105;BME280;58760;48.716;8.962;2023-04-29T04:28:12;96198.09;;;9.37;100.00
71105;BME280;58760;48.716;8.962;2023-04-29T04:30:37;96206.06;;;9.60;100.00
71105;BME280;58760;48.716;8.962;2023-04-29T04:33:02;96199.91;;;9.68;100.00
71105;BME280;58760;48.716;8.962;2023-04-29T04:35:28;96198.16;;;9.83;100.00
71105;BME280;58760;48.716;8.962;2023-04-29T04:37:53;96205.75;;;9.86;100.00
71105;BME280;58760;48.716;8.962;2023-04-29T04:40:19;96210.31;;;9.92;100.00
71105;BME280;58760;48.716;8.962;2023-04-29T04:42:45;96206.88;;;9.91;100.00
71105;BME280;58760;48.716;8.962;2023-04-29T04:45:10;96216.00;;;9.89;100.00
71105;BME280;58760;48.716;8.962;2023-04-29T04:47:36;96217.00;;;9.88;100.00
71105;BME280;58760;48.716;8.962;2023-04-29T04:50:02;96224.50;;;10.07;100.00
71105;BME280;58760;48.716;8.962;2023-04-29T04:52:28;96225.28;;;10.16;100.00
71105;BME280;58760;48.716;8.962;2023-04-29T04:54:53;96226.94;;;10.17;100.00
71105;BME280;58760;48.716;8.962;2023-04-29T04:57:19;96230.34;;;10.25;100.00
71105;BME280;58760;48.716;8.962;2023-04-29T04:59:45;96233.84;;;10.40;100.00
71105;BME280;58760;48.716;8.962;2023-04-29T05:02:10;96238.00;;;10.43;100.00
71105;BME280;58760;48.716;8.962;2023-04-29T05:04:36;96234.16;;;10.60;100.00
71105;BME280;58760;48.716;8.962;2023-04-29T05:07:01;96231.44;;;10.68;100.00
71105;BME280;58760;48.716;8.962;2023-04-29T05:09:27;96240.13;;;10.77;100.00
71105;BME280;58760;48.716;8.962;2023-04-29T05:11:53;96240.44;;;10.82;100.00
71105;BME280;58760;48.716;8.962;2023-04-29T05:14:18;96249.84;;;10.99;100.00
71105;BME280;58760;48.716;8.962;2023-04-29T05:16:44;96247.03;;;11.00;100.00
71105;BME280;58760;48.716;8.962;2023-04-29T05:19:11;96253.53;;;10.98;100.00
71105;BME280;58760;48.716;8.962;2023-04-29T05:21:36;96261.41;;;11.06;100.00
71105;BME280;58760;48.716;8.962;2023-04-29T05:24:02;96260.75;;;11.19;100.00
71105;BME280;58760;48.716;8.962;2023-04-29T05:26:28;96257.03;;;11.28;100.00
71105;BME280;58760;48.716;8.962;2023-04-29T05:28:53;96264.72;;;11.37;100.00
71105;BME280;58760;48.716;8.962;2023-04-29T05:31:20;96268.00;;;11.39;99.77
71105;BME280;58760;48.716;8.962;2023-04-29T05:33:45;96264.59;;;11.45;99.74
71105;BME280;58760;48.716;8.962;2023-04-29T05:36:10;96270.41;;;11.34;98.93
71105;BME280;58760;48.716;8.962;2023-04-29T05:38:36;96274.06;;;11.33;98.95
71105;BME280;58760;48.716;8.962;2023-04-29T05:41:01;96275.16;;;11.24;98.83
71105;BME280;58760;48.716;8.962;2023-04-29T05:43:28;96282.47;;;11.22;98.94
71105;BME280;58760;48.716;8.962;2023-04-29T05:45:53;96288.53;;;11.31;98.66
71105;BME280;58760;48.716;8.962;2023-04-29T05:48:20;96282.41;;;11.30;98.85
71105;BME280;58760;48.716;8.962;2023-04-29T05:50:45;96294.41;;;11.41;99.24
71105;BME280;58760;48.716;8.962;2023-04-29T05:53:12;96291.34;;;11.59;98.82
71105;BME280;58760;48.716;8.962;2023-04-29T05:55:38;96299.16;;;11.75;98.10
71105;BME280;58760;48.716;8.962;2023-04-29T05:58:04;96304.63;;;11.88;97.06
71105;BME280;58760;48.716;8.962;2023-04-29T06:00:29;96310.94;;;12.01;96.90
71105;BME280;58760;48.716;8.962;2023-04-29T06:02:55;96313.13;;;12.13;95.67
71105;BME280;58760;48.716;8.962;2023-04-29T06:05:21;96308.88;;;12.18;94.41
71105;BME280;58760;48.716;8.962;2023-04-29T06:07:47;96315.66;;;12.21;94.06
71105;BME280;58760;48.716;8.962;2023-04-29T06:10:12;96317.31;;;12.22;92.87
71105;BME280;58760;48.716;8.962;2023-04-29T06:12:37;96325.38;;;12.14;92.32
71105;BME280;58760;48.716;8.962;2023-04-29T06:15:03;96317.16;;;12.09;90.89
71105;BME280;58760;48.716;8.962;2023-04-29T06:17:29;96329.34;;;12.03;91.27
71105;BME280;58760;48.716;8.962;2023-04-29T06:19:54;96330.84;;;11.91;91.03
71105;BME280;58760;48.716;8.962;2023-04-29T06:22:20;96338.56;;;11.86;91.36
71105;BME280;58760;48.716;8.962;2023-04-29T06:24:46;96346.19;;;11.89;91.41
71105;BME280;58760;48.716;8.962;2023-04-29T06:27:14;96347.09;;;11.96;90.64
71105;BME280;58760;48.716;8.962;2023-04-29T06:29:39;96349.53;;;12.12;90.34
71105;BME280;58760;48.716;8.962;2023-04-29T06:32:05;96349.22;;;12.22;90.26
71105;BME280;58760;48.716;8.962;2023-04-29T06:34:30;96360.56;;;12.30;89.28
71105;BME280;58760;48.716;8.962;2023-04-29T06:36:56;96354.63;;;12.28;87.88
71105;BME280;58760;48.716;8.962;2023-04-29T06:39:21;96347.41;;;12.22;88.31
71105;BME280;58760;48.716;8.962;2023-04-29T06:41:46;96361.56;;;12.29;88.29
71105;BME280;58760;48.716;8.962;2023-04-29T06:44:12;96364.31;;;12.36;88.68
71105;BME280;58760;48.716;8.962;2023-04-29T06:46:37;96362.09;;;12.39;86.63
71105;BME280;58760;48.716;8.962;2023-04-29T06:49:03;96374.78;;;12.37;87.07
71105;BME280;58760;48.716;8.962;2023-04-29T06:51:29;96376.31;;;12.46;86.98
71105;BME280;58760;48.716;8.962;2023-04-29T06:53:54;96376.22;;;12.54;85.97
71105;BME280;58760;48.716;8.962;2023-04-29T06:56:19;96375.75;;;12.72;85.82
71105;BME280;58760;48.716;8.962;2023-04-29T06:58:45;96384.19;;;12.76;85.84
71105;BME280;58760;48.716;8.962;2023-04-29T07:01:10;96384.22;;;12.97;84.09
71105;BME280;58760;48.716;8.962;2023-04-29T07:03:36;96381.66;;;12.89;83.16
71105;BME280;58760;48.716;8.962;2023-04-29T07:06:01;96381.88;;;12.87;84.28
71105;BME280;58760;48.716;8.962;2023-04-29T07:08:26;96382.53;;;12.75;83.40
71105;BME280;58760;48.716;8.962;2023-04-29T07:10:56;96373.28;;;12.92;82.94
71105;BME280;58760;48.716;8.962;2023-04-29T07:13:21;96373.78;;;13.02;83.97
71105;BME280;58760;48.716;8.962;2023-04-29T07:15:47;96383.81;;;13.21;82.59
71105;BME280;58760;48.716;8.962;2023-04-29T07:18:12;96386.00;;;13.11;81.36
71105;BME280;58760;48.716;8.962;2023-04-29T07:20:38;96388.19;;;13.07;82.43
71105;BME280;58760;48.716;8.962;2023-04-29T07:23:03;96384.69;;;13.28;82.04
71105;BME280;58760;48.716;8.962;2023-04-29T07:25:29;96394.19;;;13.37;82.27
71105;BME280;58760;48.716;8.962;2023-04-29T07:27:55;96392.94;;;13.33;80.12
71105;BME280;58760;48.716;8.962;2023-04-29T07:30:21;96402.09;;;13.24;81.35
71105;BME280;58760;48.716;8.962;2023-04-29T07:32:47;96395.97;;;13.30;81.25
71105;BME280;58760;48.716;8.962;2023-04-29T07:35:12;96404.09;;;13.43;81.05
71105;BME280;58760;48.716;8.962;2023-04-29T07:37:38;96403.00;;;13.59;80.10
71105;BME280;58760;48.716;8.962;2023-04-29T07:40:04;96405.44;;;13.60;78.79
71105;BME280;58760;48.716;8.962;2023-04-29T07:42:30;96412.38;;;13.55;78.12
71105;BME280;58760;48.716;8.962;2023-04-29T07:44:55;96403.00;;;13.59;79.22
71105;BME280;58760;48.716;8.962;2023-04-29T07:47:20;96409.03;;;13.74;77.20
71105;BME280;58760;48.716;8.962;2023-04-29T07:49:46;96408.44;;;13.79;78.46
71105;BME280;58760;48.716;8.962;2023-04-29T07:52:11;96413.16;;;13.77;77.54
71105;BME280;58760;48.716;8.962;2023-04-29T07:54:36;96410.09;;;13.80;76.54
71105;BME280;58760;48.716;8.962;2023-04-29T07:57:03;96410.16;;;13.93;76.45
71105;BME280;58760;48.716;8.962;2023-04-29T07:59:29;96412.31;;;13.76;76.71
71105;BME280;58760;48.716;8.962;2023-04-29T08:01:55;96414.25;;;13.89;77.86
71105;BME280;58760;48.716;8.962;2023-04-29T08:04:21;96411.06;;;14.06;77.01
71105;BME280;58760;48.716;8.962;2023-04-29T08:06:47;96409.84;;;14.09;77.45
71105;BME280;58760;48.716;8.962;2023-04-29T08:09:13;96418.25;;;14.06;76.47
71105;BME280;58760;48.716;8.962;2023-04-29T08:11:38;96424.09;;;14.23;76.27
71105;BME280;58760;48.716;8.962;2023-04-29T08:14:04;96419.78;;;14.28;75.84
71105;BME280;58760;48.716;8.962;2023-04-29T08:16:30;96416.94;;;14.30;75.70
71105;BME280;58760;48.716;8.962;2023-04-29T08:18:56;96422.06;;;14.31;75.97
71105;BME280;58760;48.716;8.962;2023-04-29T08:21:21;96426.78;;;14.29;75.97
71105;BME280;58760;48.716;8.962;2023-04-29T08:23:47;96423.84;;;14.58;74.29
71105;BME280;58760;48.716;8.962;2023-04-29T08:26:12;96421.00;;;14.66;74.00
71105;BME280;58760;48.716;8.962;2023-04-29T08:28:38;96422.88;;;14.73;73.05
71105;BME280;58760;48.716;8.962;2023-04-29T08:31:03;96420.81;;;14.68;73.07
71105;BME280;58760;48.716;8.962;2023-04-29T08:33:35;96419.56;;;14.71;72.62
71105;BME280;58760;48.716;8.962;2023-04-29T08:36:01;96416.94;;;14.84;71.52
71105;BME280;58760;48.716;8.962;2023-04-29T08:38:29;96415.94;;;14.91;71.64
71105;BME280;58760;48.716;8.962;2023-04-29T08:40:55;96420.66;;;14.96;71.19
71105;BME280;58760;48.716;8.962;2023-04-29T08:43:21;96420.44;;;14.84;71.62
71105;BME280;58760;48.716;8.962;2023-04-29T08:45:50;96418.75;;;14.70;72.31
71105;BME280;58760;48.716;8.962;2023-04-29T08:48:16;96431.09;;;14.71;72.70
71105;BME280;58760;48.716;8.962;2023-04-29T08:50:42;96424.88;;;14.64;72.53
71105;BME280;58760;48.716;8.962;2023-04-29T08:53:09;96433.53;;;14.59;72.65
71105;BME280;58760;48.716;8.962;2023-04-29T08:55:40;96435.56;;;14.57;73.42
71105;BME280;58760;48.716;8.962;2023-04-29T08:58:06;96427.28;;;14.39;73.54
71105;BME280;58760;48.716;8.962;2023-04-29T09:00:33;96433.28;;;14.54;73.70
71105;BME280;58760;48.716;8.962;2023-04-29T09:03:00;96425.66;;;14.45;73.63
71105;BME280;58760;48.716;8.962;2023-04-29T09:05:30;96438.19;;;14.51;74.30
71105;BME280;58760;48.716;8.962;2023-04-29T09:07:58;96426.56;;;14.72;73.40
71105;BME280;58760;48.716;8.962;2023-04-29T09:10:26;96426.22;;;14.94;72.50
71105;BME280;58760;48.716;8.962;2023-04-29T09:12:55;96434.25;;;15.01;72.21
71105;BME280;58760;48.716;8.962;2023-04-29T09:15:21;96436.28;;;14.99;72.26
71105;BME280;58760;48.716;8.962;2023-04-29T09:17:47;96436.50;;;14.97;72.05
71105;BME280;58760;48.716;8.962;2023-04-29T09:22:54;96433.09;;;14.56;73.50
71105;BME280;58760;48.716;8.962;2023-04-29T09:25:20;96442.72;;;14.50;73.77
71105;BME280;58760;48.716;8.962;2023-04-29T09:27:46;96436.91;;;14.34;74.02
71105;BME280;58760;48.716;8.962;2023-04-29T09:30:12;96445.06;;;14.32;75.04
71105;BME280;58760;48.716;8.962;2023-04-29T09:32:40;96437.84;;;14.26;74.59
71105;BME280;58760;48.716;8.962;2023-04-29T09:35:25;96442.31;;;14.53;73.74
71105;BME280;58760;48.716;8.962;2023-04-29T09:37:51;96441.59;;;14.73;73.07
71105;BME280;58760;48.716;8.962;2023-04-29T09:40:30;96454.97;;;14.86;72.16
71105;BME280;58760;48.716;8.962;2023-04-29T09:42:56;96447.97;;;14.85;72.85
71105;BME280;58760;48.716;8.962;2023-04-29T09:45:34;96451.69;;;14.90;72.51
71105;BME280;58760;48.716;8.962;2023-04-29T09:48:04;96455.56;;;14.81;71.49
71105;BME280;58760;48.716;8.962;2023-04-29T09:50:34;96449.19;;;14.76;71.34
71105;BME280;58760;48.716;8.962;2023-04-29T09:53:09;96449.22;;;14.82;71.46
71105;BME280;58760;48.716;8.962;2023-04-29T09:56:01;96443.84;;;14.76;71.15
71105;BME280;58760;48.716;8.962;2023-04-29T09:58:31;96448.03;;;15.04;70.07
71105;BME280;58760;48.716;8.962;2023-04-29T10:01:04;96450.09;;;15.15;70.67
71105;BME280;58760;48.716;8.962;2023-04-29T10:03:37;96446.41;;;15.16;68.97
71105;BME280;58760;48.716;8.962;2023-04-29T10:06:04;96448.09;;;15.37;69.12
71105;BME280;58760;48.716;8.962;2023-04-29T10:08:30;96441.94;;;15.56;67.88
71105;BME280;58760;48.716;8.962;2023-04-29T10:11:01;96434.53;;;15.65;67.42
71105;BME280;58760;48.716;8.962;2023-04-29T10:13:27;96434.53;;;15.58;65.97
71105;BME280;58760;48.716;8.962;2023-04-29T10:16:32;96443.19;;;15.60;66.46
71105;BME280;58760;48.716;8.962;2023-04-29T10:19:02;96437.84;;;15.54;65.86
71105;BME280;58760;48.716;8.962;2023-04-29T10:21:29;96445.22;;;15.52;65.97
71105;BME280;58760;48.716;8.962;2023-04-29T10:23:58;96448.28;;;15.42;66.59
71105;BME280;58760;48.716;8.962;2023-04-29T10:26:27;96447.84;;;15.19;66.01
71105;BME280;58760;48.716;8.962;2023-04-29T10:28:56;96439.22;;;15.24;67.40
71105;BME280;58760;48.716;8.962;2023-04-29T10:31:24;96440.47;;;15.47;67.88
71105;BME280;58760;48.716;8.962;2023-04-29T10:33:50;96435.75;;;15.69;66.59
71105;BME280;58760;48.716;8.962;2023-04-29T10:42:24;96430.78;;;15.40;63.79
71105;BME280;58760;48.716;8.962;2023-04-29T10:45:25;96427.28;;;15.39;65.54
71105;BME280;58760;48.716;8.962;2023-04-29T10:50:32;96433.06;;;15.43;65.50
71105;BME280;58760;48.716;8.962;2023-04-29T10:53:01;96433.28;;;15.67;63.66
71105;BME280;58760;48.716;8.962;2023-04-29T10:55:27;96430.22;;;15.51;64.10
71105;BME280;58760;48.716;8.962;2023-04-29T10:57:54;96426.09;;;15.48;64.41
71105;BME280;58760;48.716;8.962;2023-04-29T11:00:33;96428.34;;;15.78;64.00
71105;BME280;58760;48.716;8.962;2023-04-29T11:03:00;96430.41;;;15.89;62.77
71105;BME280;58760;48.716;8.962;2023-04-29T11:05:35;96427.25;;;16.11;62.32
71105;BME280;58760;48.716;8.962;2023-04-29T11:08:22;96421.91;;;16.11;62.44
71105;BME280;58760;48.716;8.962;2023-04-29T11:10:52;96429.50;;;16.14;63.10
71105;BME280;58760;48.716;8.962;2023-04-29T11:13:26;96426.44;;;16.04;60.72
71105;BME280;58760;48.716;8.962;2023-04-29T11:16:13;96433.69;;;15.84;62.48
71105;BME280;58760;48.716;8.962;2023-04-29T11:19:03;96421.94;;;15.98;60.93
71105;BME280;58760;48.716;8.962;2023-04-29T11:21:29;96426.91;;;15.75;62.50
71105;BME280;58760;48.716;8.962;2023-04-29T11:23:57;96423.81;;;15.72;61.58
71105;BME280;58760;48.716;8.962;2023-04-29T11:26:23;96415.38;;;15.75;62.45
71105;BME280;58760;48.716;8.962;2023-04-29T11:28:50;96414.38;;;15.62;60.05
71105;BME280;58760;48.716;8.962;2023-04-29T11:31:16;96418.28;;;15.73;60.73
71105;BME280;58760;48.716;8.962;2023-04-29T11:33:42;96414.09;;;15.97;60.40
71105;BME280;58760;48.716;8.962;2023-04-29T11:36:09;96423.56;;;16.06;59.25
71105;BME280;58760;48.716;8.962;2023-04-29T11:38:39;96420.88;;;16.19;58.51
71105;BME280;58760;48.716;8.962;2023-04-29T11:41:05;96425.47;;;16.56;59.30
71105;BME280;58760;48.716;8.962;2023-04-29T11:43:30;96423.97;;;16.73;58.57
71105;BME280;58760;48.716;8.962;2023-04-29T11:45:56;96415.03;;;17.17;57.34
71105;BME280;58760;48.716;8.962;2023-04-29T11:48:22;96422.00;;;17.25;55.19
71105;BME280;58760;48.716;8.962;2023-04-29T11:50:50;96423.94;;;17.43;54.11
71105;BME280;58760;48.716;8.962;2023-04-29T11:53:19;96409.06;;;18.33;54.23
71105;BME280;58760;48.716;8.962;2023-04-29T11:55:45;96422.00;;;18.60;48.89
71105;BME280;58760;48.716;8.962;2023-04-29T11:58:11;96423.16;;;18.83;49.26
71105;BME280;58760;48.716;8.962;2023-04-29T12:00:36;96419.34;;;19.20;48.52
71105;BME280;58760;48.716;8.962;2023-04-29T12:03:16;96409.63;;;19.72;47.92
71105;BME280;58760;48.716;8.962;2023-04-29T12:06:01;96417.63;;;20.02;45.02
71105;BME280;58760;48.716;8.962;2023-04-29T12:08:27;96416.53;;;20.26;44.93
71105;BME280;58760;48.716;8.962;2023-04-29T12:10:58;96402.56;;;20.52;45.44
71105;BME280;58760;48.716;8.962;2023-04-29T12:13:26;96408.59;;;19.96;48.34
71105;BME280;58760;48.716;8.962;2023-04-29T12:15:52;96414.63;;;19.45;47.34
71105;BME280;58760;48.716;8.962;2023-04-29T12:18:19;96415.44;;;19.16;48.15
71105;BME280;58760;48.716;8.962;2023-04-29T12:20:47;96420.41;;;19.72;46.26
71105;BME280;58760;48.716;8.962;2023-04-29T12:23:13;96416.78;;;19.78;46.69
71105;BME280;58760;48.716;8.962;2023-04-29T12:25:39;96411.06;;;19.86;45.48
71105;BME280;58760;48.716;8.962;2023-04-29T12:28:12;96412.38;;;20.70;46.59
71105;BME280;58760;48.716;8.962;2023-04-29T12:30:37;96401.94;;;21.02;46.13
71105;BME280;58760;48.716;8.962;2023-04-29T12:33:03;96409.44;;;20.71;46.69
71105;BME280;58760;48.716;8.962;2023-04-29T12:35:28;96412.81;;;20.78;47.57
71105;BME280;58760;48.716;8.962;2023-04-29T12:37:53;96415.72;;;20.88;47.10
71105;BME280;58760;48.716;8.962;2023-04-29T12:40:22;96408.59;;;21.56;45.10
71105;BME280;58760;48.716;8.962;2023-04-29T12:42:47;96408.94;;;21.93;43.92
71105;BME280;58760;48.716;8.962;2023-04-29T12:47:51;96418.03;;;22.03;44.67
71105;BME280;58760;48.716;8.962;2023-04-29T12:50:16;96423.41;;;21.53;45.07
71105;BME280;58760;48.716;8.962;2023-04-29T12:52:42;96407.47;;;22.02;46.93
71105;BME280;58760;48.716;8.962;2023-04-29T12:55:07;96420.97;;;21.52;45.17
71105;BME280;58760;48.716;8.962;2023-04-29T12:57:33;96430.72;;;21.86;45.42
71105;BME280;58760;48.716;8.962;2023-04-29T12:59:58;96427.16;;;21.97;44.39
71105;BME280;58760;48.716;8.962;2023-04-29T13:02:23;96422.47;;;21.93;45.48
71105;BME280;58760;48.716;8.962;2023-04-29T13:04:49;96415.38;;;22.25;43.59
71105;BME280;58760;48.716;8.962;2023-04-29T13:07:14;96432.28;;;21.99;45.07
71105;BME280;58760;48.716;8.962;2023-04-29T13:09:39;96432.63;;;21.41;45.72
71105;BME280;58760;48.716;8.962;2023-04-29T13:12:05;96434.66;;;21.33;45.06
71105;BME280;58760;48.716;8.962;2023-04-29T13:14:32;96438.31;;;21.39;45.32
71105;BME280;58760;48.716;8.962;2023-04-29T13:16:57;96431.78;;;21.68;44.88
71105;BME280;58760;48.716;8.962;2023-04-29T13:19:22;96432.13;;;21.72;45.16
71105;BME280;58760;48.716;8.962;2023-04-29T13:21:48;96440.25;;;22.43;43.73
71105;BME280;58760;48.716;8.962;2023-04-29T13:24:15;96443.41;;;22.19;42.81